Time;durP1;ratioP1;P1;durP2;ratioP2;P2;SDS_P1;SDS_P2;PMS_P1;PMS_P2;Temp;Humidity;BMP_temperature;BMP_pressure;BME280_temperature;BME280_humidity;BME280_pressure;Samples;Min_cycle;Max_cycle;Signal;HPM_P1;HPM_P2
2021/07/21 00:01:55;;;;;;;1.98;1.88;;;;;;;;;;4976447;28;20200;-84
2021/07/21 00:04:22;;;;;;;1.60;1.50;;;;;;;;;;4976602;28;20195;-84
2021/07/21 00:06:50;;;;;;;2.33;2.13;;;;;;;;;;4976334;28;20181;-84
2021/07/21 00:09:18;;;;;;;2.28;2.08;;;;;;;;;;4976379;28;20564;-84
2021/07/21 00:14:31;;;;;;;1.70;1.60;;;;;;;;;;4976224;28;20187;-84
2021/07/21 00:17:01;;;;;;;1.65;1.55;;;;;;;;;;4976033;28;20225;-84
2021/07/21 00:22:13;;;;;;;1.50;1.40;;;;;;;;;;4976111;28;20192;-84
2021/07/21 00:24:43;;;;;;;1.77;1.67;;;;;;;;;;4975705;28;20181;-84
2021/07/21 00:27:11;;;;;;;1.98;1.85;;;;;;;;;;4975866;28;20223;-83
2021/07/21 00:29:38;;;;;;;1.92;1.83;;;;;;;;;;4976068;28;20209;-83
2021/07/21 00:32:06;;;;;;;1.77;1.67;;;;;;;;;;4975761;28;20189;-83
2021/07/21 00:34:34;;;;;;;1.58;1.48;;;;;;;;;;4975928;28;20208;-83
2021/07/21 00:37:01;;;;;;;1.85;1.75;;;;;;;;;;4975873;28;20702;-83
2021/07/21 00:39:29;;;;;;;1.90;1.80;;;;;;;;;;4975731;28;20206;-84
2021/07/21 00:41:58;;;;;;;1.60;1.50;;;;;;;;;;4975801;28;20188;-83
2021/07/21 00:44:25;;;;;;;1.77;1.67;;;;;;;;;;4975988;28;20215;-84
2021/07/21 00:46:52;;;;;;;1.63;1.52;;;;;;;;;;4975735;28;20200;-84
2021/07/21 00:49:24;;;;;;;2.10;1.90;;;;;;;;;;4975214;28;20236;-84
2021/07/21 00:51:52;;;;;;;1.30;1.20;;;;;;;;;;4975450;28;20210;-83
2021/07/21 00:54:19;;;;;;;1.20;1.05;;;;;;;;;;4975563;28;20201;-83
2021/07/21 00:56:48;;;;;;;1.10;1.05;;;;;;;;;;4975555;28;20200;-84
2021/07/21 00:59:18;;;;;;;1.70;1.60;;;;;;;;;;4975392;28;20189;-83
2021/07/21 01:01:46;;;;;;;1.65;1.50;;;;;;;;;;4975681;28;20582;-84
2021/07/21 01:04:13;;;;;;;1.45;1.35;;;;;;;;;;4975372;28;20204;-84
2021/07/21 01:06:41;;;;;;;1.25;1.15;;;;;;;;;;4974661;28;20588;-85
2021/07/21 01:09:09;;;;;;;1.30;1.20;;;;;;;;;;4974963;28;20200;-84
2021/07/21 01:11:42;;;;;;;1.38;1.27;;;;;;;;;;4975304;28;20193;-84
2021/07/21 01:14:17;;;;;;;1.60;1.50;;;;;;;;;;4975635;28;20196;-84
2021/07/21 01:16:52;;;;;;;1.70;1.60;;;;;;;;;;4974980;28;20231;-84
2021/07/21 01:19:26;;;;;;;1.88;1.55;;;;;;;;;;4974763;28;20944;-83
2021/07/21 01:22:10;;;;;;;1.60;1.50;;;;;;;;;;4974448;28;20276;-84
2021/07/21 01:24:52;;;;;;;1.33;1.33;;;;;;;;;;4974980;28;20195;-84
2021/07/21 01:27:25;;;;;;;1.50;1.40;;;;;;;;;;4974472;28;20216;-83
2021/07/21 01:29:56;;;;;;;3.15;2.00;;;;;;;;;;4974963;28;20216;-84
2021/07/21 01:32:29;;;;;;;1.40;1.30;;;;;;;;;;4974930;28;20210;-84
2021/07/21 01:35:04;;;;;;;1.38;1.27;;;;;;;;;;4974752;28;20192;-84
2021/07/21 01:37:34;;;;;;;1.30;1.20;;;;;;;;;;4973758;28;20228;-84
2021/07/21 01:40:05;;;;;;;1.20;1.20;;;;;;;;;;4974442;28;20224;-84
2021/07/21 01:42:36;;;;;;;1.38;1.27;;;;;;;;;;4974654;28;20199;-83
2021/07/21 01:45:05;;;;;;;1.77;1.55;;;;;;;;;;4974131;28;20189;-84
2021/07/21 01:47:34;;;;;;;1.70;1.60;;;;;;;;;;4974725;28;20244;-84
2021/07/21 01:50:06;;;;;;;1.80;1.70;;;;;;;;;;4974576;28;20208;-84
2021/07/21 01:52:34;;;;;;;1.50;1.40;;;;;;;;;;4974373;28;20185;-84
2021/07/21 01:55:05;;;;;;;2.20;2.00;;;;;;;;;;4974407;28;20250;-84
2021/07/21 01:57:34;;;;;;;1.92;1.70;;;;;;;;;;4974431;28;20373;-85
2021/07/21 02:00:10;;;;;;;2.10;1.98;;;;;;;;;;4973926;28;20197;-84
2021/07/21 02:02:38;;;;;;;4.03;2.88;;;;;;;;;;4955201;29;20189;-84
2021/07/21 02:05:07;;;;;;;1.70;1.60;;;;;;;;;;4957193;28;20924;-83
2021/07/21 02:07:36;;;;;;;2.13;1.90;;;;;;;;;;4972839;28;20235;-83
2021/07/21 02:10:07;;;;;;;1.88;1.70;;;;;;;;;;4973066;28;20231;-83
2021/07/21 02:12:36;;;;;;;1.73;1.63;;;;;;;;;;4974046;28;20191;-84
2021/07/21 02:15:04;;;;;;;1.80;1.65;;;;;;;;;;4974437;28;20208;-84
2021/07/21 02:17:32;;;;;;;1.90;1.80;;;;;;;;;;4973963;28;20213;-84
2021/07/21 02:20:00;;;;;;;2.15;2.05;;;;;;;;;;4974256;28;20192;-83
2021/07/21 02:22:28;;;;;;;1.95;1.75;;;;;;;;;;4973964;28;20666;-85
2021/07/21 02:24:55;;;;;;;1.15;1.13;;;;;;;;;;4974014;28;20215;-84
2021/07/21 02:27:24;;;;;;;2.75;2.55;;;;;;;;;;4973853;28;20603;-84
2021/07/21 02:29:53;;;;;;;7.47;6.78;;;;;;;;;;4974006;28;20432;-84
2021/07/21 02:32:25;;;;;;;4.82;3.63;;;;;;;;;;4973871;28;20631;-85
2021/07/21 02:34:53;;;;;;;2.72;2.22;;;;;;;;;;4974031;28;20196;-84
2021/07/21 02:37:21;;;;;;;2.58;2.38;;;;;;;;;;4973597;28;20220;-84
2021/07/21 02:39:51;;;;;;;1.60;1.50;;;;;;;;;;4973951;28;20227;-84
2021/07/21 02:42:19;;;;;;;6.18;1.50;;;;;;;;;;4973813;28;20201;-84
2021/07/21 02:44:49;;;;;;;2.03;1.90;;;;;;;;;;4973784;28;20191;-84
2021/07/21 02:47:19;;;;;;;3.55;1.80;;;;;;;;;;4954860;28;20892;-85
2021/07/21 02:49:47;;;;;;;1.95;1.80;;;;;;;;;;4954557;28;20186;-84
2021/07/21 02:52:24;;;;;;;1.80;1.65;;;;;;;;;;4954424;29;20205;-84
2021/07/21 02:55:07;;;;;;;1.63;1.52;;;;;;;;;;4954530;29;20236;-84
2021/07/21 02:57:41;;;;;;;1.40;1.30;;;;;;;;;;4954437;28;20584;-84
2021/07/21 03:00:12;;;;;;;1.50;1.40;;;;;;;;;;4954532;29;20259;-85
2021/07/21 03:02:43;;;;;;;1.80;1.58;;;;;;;;;;4954228;29;20193;-84
2021/07/21 03:05:14;;;;;;;1.60;1.50;;;;;;;;;;4955256;28;20568;-84
2021/07/21 03:07:45;;;;;;;2.00;1.80;;;;;;;;;;4973695;28;20228;-84
2021/07/21 03:10:15;;;;;;;1.50;1.40;;;;;;;;;;4973117;28;20184;-84
2021/07/21 03:12:47;;;;;;;1.63;1.50;;;;;;;;;;4973334;28;20189;-84
2021/07/21 03:15:16;;;;;;;1.00;1.00;;;;;;;;;;4973784;28;20185;-84
2021/07/21 03:17:48;;;;;;;1.55;1.45;;;;;;;;;;4973731;28;20235;-85
2021/07/21 03:20:17;;;;;;;1.70;1.60;;;;;;;;;;4973153;28;20662;-84
2021/07/21 03:22:45;;;;;;;1.58;1.40;;;;;;;;;;4973257;28;20181;-85
2021/07/21 03:25:13;;;;;;;1.98;1.63;;;;;;;;;;4973480;28;20185;-84
2021/07/21 03:27:41;;;;;;;1.52;1.42;;;;;;;;;;4973223;28;20220;-84
2021/07/21 03:30:11;;;;;;;1.23;1.20;;;;;;;;;;4973223;28;20199;-84
2021/07/21 03:32:40;;;;;;;1.40;1.30;;;;;;;;;;4973192;28;20589;-84
2021/07/21 03:35:10;;;;;;;1.40;1.30;;;;;;;;;;4973283;28;20189;-83
2021/07/21 03:37:41;;;;;;;1.50;1.40;;;;;;;;;;4953732;28;20225;-83
2021/07/21 03:40:11;;;;;;;1.55;1.45;;;;;;;;;;4953820;29;20232;-83
2021/07/21 03:42:39;;;;;;;1.40;1.30;;;;;;;;;;4953719;29;20284;-83
2021/07/21 03:45:10;;;;;;;1.45;1.30;;;;;;;;;;4953976;29;20185;-84
2021/07/21 03:47:37;;;;;;;1.50;1.40;;;;;;;;;;4953959;28;20229;-84
2021/07/21 03:50:08;;;;;;;1.60;1.50;;;;;;;;;;4954060;29;20193;-84
2021/07/21 03:52:36;;;;;;;2.15;2.00;;;;;;;;;;4971949;28;20216;-85
2021/07/21 03:55:11;;;;;;;1.42;1.33;;;;;;;;;;4973424;28;20193;-84
2021/07/21 03:57:39;;;;;;;1.10;1.10;;;;;;;;;;4971527;28;20637;-84
2021/07/21 04:00:11;;;;;;;1.95;1.85;;;;;;;;;;4972405;28;20187;-84
2021/07/21 04:02:38;;;;;;;1.55;1.45;;;;;;;;;;4976084;28;20200;-84
2021/07/21 04:05:10;;;;;;;1.92;1.80;;;;;;;;;;4975967;28;20193;-85
2021/07/21 04:07:39;;;;;;;1.85;1.75;;;;;;;;;;4975728;28;20220;-84
2021/07/21 04:10:09;;;;;;;3.75;1.70;;;;;;;;;;4975968;28;20200;-84
2021/07/21 04:12:37;;;;;;;1.58;1.48;;;;;;;;;;4976400;28;20211;-83
2021/07/21 04:15:06;;;;;;;1.50;1.40;;;;;;;;;;4976406;28;20188;-84
2021/07/21 04:17:35;;;;;;;1.40;1.30;;;;;;;;;;4976056;28;20216;-84
2021/07/21 04:20:04;;;;;;;2.72;1.63;;;;;;;;;;4975967;28;20674;-85
2021/07/21 04:22:33;;;;;;;2.58;2.38;;;;;;;;;;4975919;28;20200;-84
2021/07/21 04:25:01;;;;;;;2.25;2.05;;;;;;;;;;4976171;28;20181;-84
2021/07/21 04:27:30;;;;;;;3.40;2.30;;;;;;;;;;4975854;28;20227;-84
2021/07/21 04:29:58;;;;;;;4.70;2.13;;;;;;;;;;4976214;28;20558;-85
2021/07/21 04:32:28;;;;;;;1.88;1.77;;;;;;;;;;4976069;28;20212;-85
2021/07/21 04:34:56;;;;;;;2.17;2.03;;;;;;;;;;4976203;28;20235;-85
2021/07/21 04:37:23;;;;;;;2.40;2.20;;;;;;;;;;4975987;28;20221;-84
2021/07/21 04:39:54;;;;;;;2.00;1.80;;;;;;;;;;4975613;28;20225;-85
2021/07/21 04:42:24;;;;;;;1.70;1.60;;;;;;;;;;4975866;28;20283;-85
2021/07/21 04:44:52;;;;;;;2.25;2.05;;;;;;;;;;4975716;28;20188;-84
2021/07/21 04:47:20;;;;;;;1.90;1.80;;;;;;;;;;4975569;28;20228;-83
2021/07/21 04:49:47;;;;;;;2.40;2.20;;;;;;;;;;4975688;28;20432;-84
2021/07/21 04:52:16;;;;;;;2.10;1.98;;;;;;;;;;4980067;28;20223;-84
2021/07/21 04:54:44;;;;;;;1.90;1.80;;;;;;;;;;4975687;28;20192;-84
2021/07/21 04:57:13;;;;;;;1.92;1.83;;;;;;;;;;4975558;28;20235;-84
2021/07/21 04:59:40;;;;;;;2.83;2.63;;;;;;;;;;4975410;28;20188;-85
2021/07/21 05:02:08;;;;;;;2.53;2.33;;;;;;;;;;4975732;28;20191;-84
2021/07/21 05:04:36;;;;;;;4.68;2.58;;;;;;;;;;4975518;28;20196;-84
2021/07/21 05:07:04;;;;;;;1.90;1.80;;;;;;;;;;4975628;28;20312;-85
2021/07/21 05:09:32;;;;;;;1.73;1.63;;;;;;;;;;4975635;28;20207;-85
2021/07/21 05:11:59;;;;;;;2.20;2.00;;;;;;;;;;4975200;28;20580;-84
2021/07/21 05:14:28;;;;;;;1.63;1.52;;;;;;;;;;4975397;28;20195;-85
2021/07/21 05:16:56;;;;;;;1.75;1.65;;;;;;;;;;4975290;28;20215;-85
2021/07/21 05:19:23;;;;;;;2.70;2.50;;;;;;;;;;4975462;28;20587;-86
2021/07/21 05:21:52;;;;;;;1.70;1.60;;;;;;;;;;4975012;28;20215;-85
2021/07/21 05:24:20;;;;;;;1.60;1.50;;;;;;;;;;4975496;28;20201;-86
2021/07/21 05:26:47;;;;;;;1.50;1.40;;;;;;;;;;4974910;28;20188;-86
2021/07/21 05:29:15;;;;;;;2.92;1.77;;;;;;;;;;4975217;28;20202;-85
2021/07/21 05:31:44;;;;;;;3.45;1.90;;;;;;;;;;4975023;28;20188;-84
2021/07/21 05:34:11;;;;;;;2.30;2.10;;;;;;;;;;4974978;28;20200;-85
2021/07/21 05:36:40;;;;;;;1.67;1.58;;;;;;;;;;4975171;28;20197;-85
2021/07/21 05:39:09;;;;;;;2.13;1.92;;;;;;;;;;4974674;28;20206;-85
2021/07/21 05:41:37;;;;;;;1.90;1.80;;;;;;;;;;4974388;28;20237;-86
2021/07/21 05:44:05;;;;;;;2.30;2.15;;;;;;;;;;4974700;28;20215;-86
2021/07/21 05:46:33;;;;;;;1.98;1.77;;;;;;;;;;4974417;28;20189;-86
2021/07/21 05:49:01;;;;;;;2.47;2.28;;;;;;;;;;4974946;28;20224;-84
2021/07/21 05:51:29;;;;;;;3.47;3.17;;;;;;;;;;4975231;28;20651;-85
2021/07/21 05:53:57;;;;;;;2.13;2.00;;;;;;;;;;4974850;28;20213;-85
2021/07/21 05:56:26;;;;;;;2.35;2.17;;;;;;;;;;4974793;28;20205;-86
2021/07/21 05:58:54;;;;;;;2.65;2.45;;;;;;;;;;4974478;28;20216;-85
2021/07/21 06:01:21;;;;;;;2.80;2.58;;;;;;;;;;4974705;28;20199;-85
2021/07/21 06:03:50;;;;;;;3.17;2.65;;;;;;;;;;4974476;28;20234;-85
2021/07/21 06:06:19;;;;;;;2.28;2.10;;;;;;;;;;4974954;28;20195;-85
2021/07/21 06:08:46;;;;;;;2.20;2.05;;;;;;;;;;4974606;28;20226;-86
2021/07/21 06:11:13;;;;;;;2.03;1.92;;;;;;;;;;4974806;28;20212;-85
2021/07/21 06:13:41;;;;;;;2.35;2.20;;;;;;;;;;4974554;28;20230;-86
2021/07/21 06:16:09;;;;;;;2.35;2.15;;;;;;;;;;4974691;28;20252;-84
2021/07/21 06:18:37;;;;;;;3.08;2.88;;;;;;;;;;4974543;28;21052;-84
2021/07/21 06:21:05;;;;;;;3.08;2.88;;;;;;;;;;4974625;28;20630;-85
2021/07/21 06:23:39;;;;;;;2.90;2.70;;;;;;;;;;4974023;28;20667;-85
2021/07/21 06:26:07;;;;;;;2.50;2.30;;;;;;;;;;4974759;28;20202;-86
2021/07/21 06:28:35;;;;;;;3.58;2.70;;;;;;;;;;4974384;28;20236;-85
2021/07/21 06:31:02;;;;;;;2.80;2.55;;;;;;;;;;4974406;28;20196;-85
2021/07/21 06:33:30;;;;;;;3.33;3.03;;;;;;;;;;4974763;28;20805;-84
2021/07/21 06:35:58;;;;;;;2.20;2.00;;;;;;;;;;4975302;28;20188;-85
2021/07/21 06:38:27;;;;;;;2.83;2.53;;;;;;;;;;4976337;28;20234;-84
2021/07/21 06:40:57;;;;;;;2.50;2.30;;;;;;;;;;4974786;28;20319;-85
2021/07/21 06:43:25;;;;;;;2.60;2.40;;;;;;;;;;4974702;28;20200;-85
2021/07/21 06:45:52;;;;;;;4.78;3.78;;;;;;;;;;4975025;28;20186;-84
2021/07/21 06:48:20;;;;;;;4.13;3.72;;;;;;;;;;4974705;28;20215;-86
2021/07/21 06:50:47;;;;;;;2.90;2.70;;;;;;;;;;4975383;28;20651;-85
2021/07/21 06:53:15;;;;;;;2.88;2.67;;;;;;;;;;4974949;28;20593;-85
2021/07/21 06:55:42;;;;;;;2.60;2.40;;;;;;;;;;4975468;28;20192;-86
2021/07/21 06:58:11;;;;;;;2.15;2.05;;;;;;;;;;4975626;28;20231;-86
2021/07/21 07:00:38;;;;;;;2.30;2.10;;;;;;;;;;4973719;28;20211;-84
2021/07/21 07:03:06;;;;;;;2.33;2.13;;;;;;;;;;4974639;28;20200;-85
2021/07/21 07:05:33;;;;;;;2.15;2.05;;;;;;;;;;4975578;28;20188;-86
2021/07/21 07:08:00;;;;;;;2.50;2.30;;;;;;;;;;4974671;28;20224;-85
2021/07/21 07:10:28;;;;;;;2.63;2.40;;;;;;;;;;4974882;28;20200;-84
2021/07/21 07:12:56;;;;;;;2.50;2.30;;;;;;;;;;4975087;28;20716;-83
2021/07/21 07:15:26;;;;;;;2.60;2.40;;;;;;;;;;4974984;28;20609;-87
2021/07/21 07:17:53;;;;;;;2.60;2.42;;;;;;;;;;4974818;28;20223;-85
2021/07/21 07:20:20;;;;;;;2.17;1.98;;;;;;;;;;4973873;28;20199;-85
2021/07/21 07:22:48;;;;;;;2.53;2.33;;;;;;;;;;4974605;28;20207;-85
2021/07/21 07:25:16;;;;;;;2.35;2.15;;;;;;;;;;4970831;28;20204;-84
2021/07/21 07:27:43;;;;;;;2.60;2.40;;;;;;;;;;4973868;28;20222;-84
2021/07/21 07:30:14;;;;;;;3.65;2.85;;;;;;;;;;4973084;28;20199;-85
2021/07/21 07:32:43;;;;;;;2.88;2.35;;;;;;;;;;4973796;28;20632;-84
2021/07/21 07:35:12;;;;;;;3.22;2.70;;;;;;;;;;4973602;28;20217;-85
2021/07/21 07:37:42;;;;;;;3.15;2.65;;;;;;;;;;4977006;28;20709;-85
2021/07/21 07:40:11;;;;;;;2.03;1.92;;;;;;;;;;4977581;28;20743;-83
2021/07/21 07:42:39;;;;;;;3.10;2.80;;;;;;;;;;4977298;28;20782;-85
2021/07/21 07:45:08;;;;;;;2.20;2.00;;;;;;;;;;4977148;28;20211;-85
2021/07/21 07:47:37;;;;;;;2.22;2.00;;;;;;;;;;4977194;28;20230;-84
2021/07/21 07:50:09;;;;;;;2.92;2.72;;;;;;;;;;4976729;28;20201;-85
2021/07/21 07:52:37;;;;;;;3.42;2.90;;;;;;;;;;4976711;28;20212;-85
2021/07/21 07:55:06;;;;;;;2.88;2.67;;;;;;;;;;4976063;28;20699;-85
2021/07/21 07:57:34;;;;;;;5.13;3.00;;;;;;;;;;4976834;28;20225;-84
2021/07/21 08:00:01;;;;;;;2.83;2.63;;;;;;;;;;4976971;28;20196;-86
2021/07/21 08:02:29;;;;;;;2.40;2.20;;;;;;;;;;4976446;28;20276;-85
2021/07/21 08:04:56;;;;;;;3.55;3.25;;;;;;;;;;4975419;28;20215;-85
2021/07/21 08:07:28;;;;;;;4.45;3.65;;;;;;;;;;4976361;28;20220;-86
2021/07/21 08:09:55;;;;;;;4.22;3.30;;;;;;;;;;4976987;28;20738;-85
2021/07/21 08:12:23;;;;;;;3.75;3.05;;;;;;;;;;4976874;28;20196;-85
2021/07/21 08:14:50;;;;;;;2.70;2.50;;;;;;;;;;4975973;28;20212;-84
2021/07/21 08:17:18;;;;;;;3.05;2.80;;;;;;;;;;4976442;28;20646;-86
2021/07/21 08:19:50;;;;;;;4.00;3.60;;;;;;;;;;4974579;28;20635;-85
2021/07/21 08:22:21;;;;;;;3.58;3.22;;;;;;;;;;4974561;28;20211;-85
2021/07/21 08:24:52;;;;;;;3.63;3.10;;;;;;;;;;4975748;28;20212;-83
2021/07/21 08:27:19;;;;;;;3.65;3.35;;;;;;;;;;4976208;28;20280;-85
2021/07/21 08:29:47;;;;;;;3.33;3.03;;;;;;;;;;4975911;28;20185;-85
2021/07/21 08:32:14;;;;;;;2.97;2.70;;;;;;;;;;4976589;28;20208;-86
2021/07/21 08:34:42;;;;;;;3.25;2.95;;;;;;;;;;4976115;28;20295;-86
2021/07/21 08:37:09;;;;;;;2.85;2.65;;;;;;;;;;4976284;28;20228;-83
2021/07/21 08:39:37;;;;;;;3.10;2.88;;;;;;;;;;4977664;28;20238;-83
2021/07/21 08:42:07;;;;;;;3.40;3.10;;;;;;;;;;4976031;28;20211;-84
2021/07/21 08:44:35;;;;;;;3.03;2.80;;;;;;;;;;4977413;28;20196;-84
2021/07/21 08:47:03;;;;;;;3.30;2.65;;;;;;;;;;4977507;28;20331;-84
2021/07/21 08:49:31;;;;;;;2.60;2.40;;;;;;;;;;4977651;28;20200;-84
2021/07/21 08:52:00;;;;;;;2.47;2.28;;;;;;;;;;4977216;28;20189;-85
2021/07/21 08:54:28;;;;;;;2.50;2.33;;;;;;;;;;4977289;28;20209;-86
2021/07/21 08:56:57;;;;;;;2.53;2.33;;;;;;;;;;4976244;28;20576;-84
2021/07/21 08:59:27;;;;;;;2.78;2.58;;;;;;;;;;4975684;28;20199;-86
2021/07/21 09:01:56;;;;;;;3.22;2.88;;;;;;;;;;4975484;28;20195;-85
2021/07/21 09:04:23;;;;;;;4.68;4.28;;;;;;;;;;4975615;28;20197;-86
2021/07/21 09:06:52;;;;;;;3.65;3.35;;;;;;;;;;4975748;28;20196;-85
2021/07/21 09:09:20;;;;;;;4.65;3.42;;;;;;;;;;4975349;28;20690;-84
2021/07/21 09:11:48;;;;;;;3.95;3.65;;;;;;;;;;4975514;28;20200;-85
2021/07/21 09:14:15;;;;;;;4.80;4.05;;;;;;;;;;4974781;28;20683;-86
2021/07/21 09:16:44;;;;;;;3.95;3.53;;;;;;;;;;4975485;28;20195;-85
2021/07/21 09:19:14;;;;;;;3.60;2.95;;;;;;;;;;4976347;28;20192;-86
2021/07/21 09:21:43;;;;;;;4.65;4.25;;;;;;;;;;4976938;28;20546;-85
2021/07/21 09:24:21;;;;;;;4.25;3.90;;;;;;;;;;4975434;28;20217;-83
2021/07/21 09:26:48;;;;;;;3.90;2.90;;;;;;;;;;4976345;28;20184;-83
2021/07/21 09:29:17;;;;;;;4.38;3.63;;;;;;;;;;4975413;28;20212;-86
2021/07/21 09:31:54;;;;;;;4.30;3.95;;;;;;;;;;4974305;28;20212;-86
2021/07/21 09:34:24;;;;;;;4.10;3.70;;;;;;;;;;4975191;28;20228;-85
2021/07/21 09:37:02;;;;;;;3.50;3.20;;;;;;;;;;4976124;28;20218;-85
2021/07/21 09:39:34;;;;;;;3.88;3.42;;;;;;;;;;4975679;28;20594;-86
2021/07/21 09:42:03;;;;;;;4.80;4.40;;;;;;;;;;4975437;28;20557;-85
2021/07/21 09:44:35;;;;;;;4.28;3.88;;;;;;;;;;4974949;28;20200;-86
2021/07/21 09:47:16;;;;;;;3.72;3.42;;;;;;;;;;4975765;28;20729;-83
2021/07/21 09:49:45;;;;;;;3.13;2.92;;;;;;;;;;4975238;28;20188;-85
2021/07/21 09:52:23;;;;;;;3.58;3.28;;;;;;;;;;4975221;28;20180;-85
2021/07/21 09:55:12;;;;;;;3.40;2.97;;;;;;;;;;4974466;28;20216;-84
2021/07/21 09:57:40;;;;;;;3.30;3.00;;;;;;;;;;4974265;28;20581;-85
2021/07/21 10:00:22;;;;;;;2.67;2.47;;;;;;;;;;4974860;28;20189;-86
2021/07/21 10:02:53;;;;;;;2.78;2.55;;;;;;;;;;4975217;28;20196;-86
2021/07/21 10:05:20;;;;;;;2.92;2.72;;;;;;;;;;4975104;28;20197;-86
2021/07/21 10:07:50;;;;;;;3.30;3.03;;;;;;;;;;4974624;28;20220;-86
2021/07/21 10:10:20;;;;;;;3.45;3.15;;;;;;;;;;4974404;28;20205;-86
2021/07/21 10:13:01;;;;;;;3.65;3.30;;;;;;;;;;4974899;28;20200;-86
2021/07/21 10:15:29;;;;;;;3.13;2.83;;;;;;;;;;4974392;28;20219;-86
2021/07/21 10:18:13;;;;;;;2.97;2.67;;;;;;;;;;4975049;28;20235;-86
2021/07/21 10:20:43;;;;;;;3.38;3.08;;;;;;;;;;4974250;28;20670;-85
2021/07/21 10:23:13;;;;;;;2.33;2.22;;;;;;;;;;4974945;28;20216;-86
2021/07/21 10:25:41;;;;;;;2.00;1.90;;;;;;;;;;4974707;28;20205;-86
2021/07/21 10:28:10;;;;;;;2.85;2.55;;;;;;;;;;4974091;28;20217;-85
2021/07/21 10:30:39;;;;;;;2.45;2.25;;;;;;;;;;4974288;28;20185;-86
2021/07/21 10:33:07;;;;;;;2.63;2.42;;;;;;;;;;4973932;28;20200;-87
2021/07/21 10:35:36;;;;;;;2.10;1.90;;;;;;;;;;4974211;28;20208;-85
2021/07/21 10:38:04;;;;;;;2.60;2.40;;;;;;;;;;4973686;28;20723;-86
2021/07/21 10:40:33;;;;;;;1.95;1.85;;;;;;;;;;4973284;28;20772;-87
2021/07/21 10:43:02;;;;;;;2.00;1.90;;;;;;;;;;4974237;28;20236;-86
2021/07/21 10:45:35;;;;;;;2.00;1.90;;;;;;;;;;4973894;28;20196;-87
2021/07/21 10:48:13;;;;;;;2.67;2.47;;;;;;;;;;4971623;28;20291;-85
2021/07/21 10:50:55;;;;;;;1.63;1.52;;;;;;;;;;4973549;28;20192;-86
2021/07/21 10:59:23;;;;;;;1.60;1.50;;;;;;;;;;4954870;29;20203;-86
2021/07/21 11:01:53;;;;;;;1.45;1.35;;;;;;;;;;4954737;29;20221;-86
2021/07/21 11:04:22;;;;;;;2.03;1.92;;;;;;;;;;4959508;28;20200;-84
2021/07/21 11:06:52;;;;;;;1.65;1.55;;;;;;;;;;4974295;28;20196;-87
2021/07/21 11:09:25;;;;;;;2.03;1.92;;;;;;;;;;4974998;28;20636;-85
2021/07/21 11:11:57;;;;;;;2.15;1.70;;;;;;;;;;4977895;28;20188;-85
2021/07/21 11:14:27;;;;;;;1.98;1.88;;;;;;;;;;4977616;28;20204;-84
2021/07/21 11:16:56;;;;;;;1.75;1.65;;;;;;;;;;4976944;28;20205;-85
2021/07/21 11:19:38;;;;;;;2.20;1.98;;;;;;;;;;4977287;28;20831;-85
2021/07/21 11:22:09;;;;;;;2.28;2.08;;;;;;;;;;4977367;28;20188;-85
2021/07/21 11:25:07;;;;;;;2.30;2.10;;;;;;;;;;4978169;28;20645;-85
2021/07/21 11:27:43;;;;;;;2.05;1.88;;;;;;;;;;4976482;28;20208;-86
2021/07/21 11:30:37;;;;;;;1.50;1.40;;;;;;;;;;4977430;28;20188;-86
2021/07/21 11:33:48;;;;;;;1.55;1.45;;;;;;;;;;4977254;28;20208;-86
2021/07/21 11:36:54;;;;;;;1.73;1.52;;;;;;;;;;4957563;29;20224;-84
2021/07/21 11:39:44;;;;;;;1.60;1.50;;;;;;;;;;4973965;28;20200;-86
2021/07/21 11:42:33;;;;;;;1.23;1.23;;;;;;;;;;4977512;28;20224;-85
2021/07/21 11:45:18;;;;;;;1.80;1.70;;;;;;;;;;4977157;28;20288;-86
2021/07/21 11:47:52;;;;;;;1.50;1.40;;;;;;;;;;4976692;28;20223;-87
2021/07/21 11:50:22;;;;;;;1.65;1.55;;;;;;;;;;4977077;28;20180;-85
2021/07/21 11:52:54;;;;;;;1.83;1.40;;;;;;;;;;4976658;28;20636;-87
2021/07/21 11:55:24;;;;;;;1.60;1.50;;;;;;;;;;4976468;28;20201;-86
2021/07/21 11:57:53;;;;;;;1.75;1.65;;;;;;;;;;4976283;28;20221;-85
2021/07/21 12:00:22;;;;;;;1.20;1.20;;;;;;;;;;4976198;28;20208;-85
2021/07/21 12:03:00;;;;;;;2.35;1.77;;;;;;;;;;4976525;28;20850;-87
2021/07/21 12:05:28;;;;;;;1.55;1.33;;;;;;;;;;4976435;28;20208;-86
2021/07/21 12:08:04;;;;;;;1.52;1.42;;;;;;;;;;4975868;28;20576;-87
2021/07/21 12:10:34;;;;;;;1.67;1.58;;;;;;;;;;4976177;28;20208;-86
2021/07/21 12:13:09;;;;;;;1.60;1.50;;;;;;;;;;4975868;28;20197;-86
2021/07/21 12:15:36;;;;;;;1.63;1.52;;;;;;;;;;4975783;28;20663;-86
2021/07/21 12:18:09;;;;;;;1.50;1.40;;;;;;;;;;4975481;28;20220;-87
2021/07/21 12:20:37;;;;;;;1.75;1.65;;;;;;;;;;4975431;28;20187;-86
2021/07/21 12:23:05;;;;;;;1.65;1.55;;;;;;;;;;4975654;28;20192;-86
2021/07/21 12:25:34;;;;;;;1.95;1.83;;;;;;;;;;4975975;28;20192;-86
2021/07/21 12:28:01;;;;;;;2.17;1.95;;;;;;;;;;4976304;28;20221;-86
2021/07/21 12:30:36;;;;;;;2.13;1.92;;;;;;;;;;4976143;28;20185;-86
2021/07/21 12:33:03;;;;;;;1.80;1.70;;;;;;;;;;4976335;28;20188;-87
2021/07/21 12:35:31;;;;;;;2.00;1.90;;;;;;;;;;4974903;28;20690;-85
2021/07/21 12:38:00;;;;;;;1.70;1.60;;;;;;;;;;4975579;28;20228;-87
2021/07/21 12:40:30;;;;;;;2.17;2.00;;;;;;;;;;4975553;28;20291;-86
2021/07/21 12:43:02;;;;;;;2.70;2.50;;;;;;;;;;4976127;28;20192;-86
2021/07/21 12:45:32;;;;;;;2.15;1.95;;;;;;;;;;4975639;28;20667;-85
2021/07/21 12:47:59;;;;;;;1.88;1.77;;;;;;;;;;4975758;28;20225;-85
2021/07/21 12:50:30;;;;;;;2.10;1.90;;;;;;;;;;4975810;28;20181;-87
2021/07/21 12:53:02;;;;;;;1.73;1.63;;;;;;;;;;4975833;28;20197;-84
2021/07/21 12:55:35;;;;;;;1.63;1.52;;;;;;;;;;4975368;28;20196;-87
2021/07/21 12:58:05;;;;;;;1.90;1.80;;;;;;;;;;4975771;28;20227;-87
2021/07/21 13:00:34;;;;;;;2.35;2.15;;;;;;;;;;4975498;28;20576;-87
2021/07/21 13:03:04;;;;;;;4.15;2.35;;;;;;;;;;4975709;28;20185;-86
2021/07/21 13:05:36;;;;;;;2.22;2.03;;;;;;;;;;4975278;28;20208;-85
2021/07/21 13:08:08;;;;;;;2.20;2.10;;;;;;;;;;4974978;28;20240;-86
2021/07/21 13:10:38;;;;;;;2.20;2.00;;;;;;;;;;4975439;28;20208;-86
2021/07/21 13:13:07;;;;;;;1.67;1.58;;;;;;;;;;4977857;28;20185;-87
2021/07/21 13:15:36;;;;;;;2.17;1.98;;;;;;;;;;4974093;28;20196;-87
2021/07/21 13:18:10;;;;;;;1.60;1.50;;;;;;;;;;4974907;28;20220;-86
2021/07/21 13:20:44;;;;;;;1.98;1.77;;;;;;;;;;4971773;28;20220;-86
2021/07/21 13:23:20;;;;;;;1.80;1.70;;;;;;;;;;4975426;28;20189;-84
2021/07/21 13:25:52;;;;;;;1.75;1.65;;;;;;;;;;4972938;28;20680;-91
2021/07/21 13:28:28;;;;;;;1.52;1.42;;;;;;;;;;4975076;28;20228;-87
2021/07/21 13:30:59;;;;;;;1.80;1.70;;;;;;;;;;4974894;28;20202;-86
2021/07/21 13:33:33;;;;;;;2.17;2.08;;;;;;;;;;4973954;28;20192;-85
2021/07/21 13:36:09;;;;;;;2.15;1.95;;;;;;;;;;4973016;28;20554;-87
2021/07/21 13:38:38;;;;;;;2.15;1.95;;;;;;;;;;4974773;28;20238;-86
2021/07/21 13:41:08;;;;;;;2.03;1.92;;;;;;;;;;4975234;28;20255;-86
2021/07/21 13:43:38;;;;;;;2.00;1.90;;;;;;;;;;4975138;28;20203;-86
2021/07/21 13:46:26;;;;;;;1.58;1.48;;;;;;;;;;4955760;29;20553;-86
2021/07/21 13:49:00;;;;;;;2.45;2.25;;;;;;;;;;4955107;28;20770;-86
2021/07/21 13:52:25;;;;;;;;;;;;;;;;;;;;;
2021/07/21 13:55:00;;;;;;;2.40;2.20;;;;;;;;;;4972778;28;20204;-86
2021/07/21 13:57:28;;;;;;;2.22;2.03;;;;;;;;;;4973842;28;20235;-86
2021/07/21 13:59:57;;;;;;;2.10;1.90;;;;;;;;;;4974238;28;20193;-86
2021/07/21 14:02:29;;;;;;;1.73;1.63;;;;;;;;;;4973625;28;20208;-88
2021/07/21 14:04:57;;;;;;;2.08;1.98;;;;;;;;;;4973863;28;20208;-83
2021/07/21 14:07:25;;;;;;;1.92;1.80;;;;;;;;;;4975496;28;20224;-85
2021/07/21 14:09:53;;;;;;;3.03;2.30;;;;;;;;;;4976310;28;20204;-85
2021/07/21 14:12:20;;;;;;;2.08;1.90;;;;;;;;;;4977497;28;20267;-85
2021/07/21 14:14:48;;;;;;;2.00;1.90;;;;;;;;;;4977106;28;20187;-86
2021/07/21 14:17:17;;;;;;;2.40;2.20;;;;;;;;;;4977268;28;20611;-85
2021/07/21 14:19:46;;;;;;;2.40;2.20;;;;;;;;;;4958003;29;20200;-85
2021/07/21 14:22:14;;;;;;;2.50;2.10;;;;;;;;;;4973240;28;20236;-85
2021/07/21 14:24:42;;;;;;;2.13;1.92;;;;;;;;;;4977498;28;20673;-85
2021/07/21 14:27:09;;;;;;;2.80;2.30;;;;;;;;;;4970933;28;20576;-86
2021/07/21 14:29:36;;;;;;;4.70;3.47;;;;;;;;;;4955628;29;20212;-86
2021/07/21 14:32:05;;;;;;;2.85;2.50;;;;;;;;;;4954927;29;20213;-86
2021/07/21 14:34:40;;;;;;;2.47;2.28;;;;;;;;;;4955731;29;20201;-86
2021/07/21 14:37:08;;;;;;;2.80;2.35;;;;;;;;;;4955744;28;20224;-86
2021/07/21 14:39:36;;;;;;;2.63;2.28;;;;;;;;;;4971067;28;20236;-86
2021/07/21 14:42:04;;;;;;;2.50;2.30;;;;;;;;;;4976938;28;20200;-85
2021/07/21 14:44:37;;;;;;;2.47;2.28;;;;;;;;;;4976032;28;20667;-86
2021/07/21 14:47:05;;;;;;;2.53;2.33;;;;;;;;;;4976950;28;20230;-85
2021/07/21 14:49:34;;;;;;;2.40;2.20;;;;;;;;;;4975044;28;20675;-87
2021/07/21 14:52:03;;;;;;;4.78;2.90;;;;;;;;;;4973889;28;20207;-88
2021/07/21 14:54:31;;;;;;;2.80;2.60;;;;;;;;;;4974672;28;20193;-86
2021/07/21 14:56:58;;;;;;;2.28;2.08;;;;;;;;;;4974466;28;20192;-86
2021/07/21 14:59:25;;;;;;;3.08;2.78;;;;;;;;;;4974599;28;20219;-86
2021/07/21 15:01:54;;;;;;;2.78;2.58;;;;;;;;;;4973645;28;20187;-87
2021/07/21 15:04:23;;;;;;;2.60;2.40;;;;;;;;;;4974696;28;20188;-86
2021/07/21 15:06:50;;;;;;;2.65;2.42;;;;;;;;;;4974056;28;20632;-87
2021/07/21 15:09:19;;;;;;;2.83;2.63;;;;;;;;;;4972664;28;20201;-87
2021/07/21 15:11:47;;;;;;;3.83;2.63;;;;;;;;;;4976210;28;20678;-85
2021/07/21 15:14:16;;;;;;;3.00;2.70;;;;;;;;;;4991394;28;20203;-85